Time;durP1;ratioP1;P1;durP2;ratioP2;P2;SDS_P1;SDS_P2;PMS_P1;PMS_P2;Temp;Humidity;BMP_temperature;BMP_pressure;BME280_temperature;BME280_humidity;BME280_pressure;Samples;Min_cycle;Max_cycle;Signal;HPM_P1;HPM_P2
2021/10/27 00:00:13;;;;;;;1.85;1.08;;;;;;;8.29;88.64;101045.47;6335766;28;20440;-72
2021/10/27 00:03:20;;;;;;;10.93;2.00;;;;;;;8.24;89.33;101042.47;6337129;28;20198;-72
2021/10/27 00:06:26;;;;;;;2.53;1.13;;;;;;;8.29;89.58;101039.19;6336488;28;20305;-73
2021/10/27 00:09:30;;;;;;;1.95;0.98;;;;;;;8.33;89.14;101035.88;6335770;28;20478;-72
2021/10/27 00:12:35;;;;;;;3.75;1.00;;;;;;;8.32;89.30;101033.34;6335688;28;20214;-72
2021/10/27 00:15:39;;;;;;;2.05;1.00;;;;;;;8.26;90.32;101039.53;6336718;28;20183;-73
2021/10/27 00:18:43;;;;;;;9.98;1.20;;;;;;;8.33;89.40;101049.44;6336844;28;20261;-73
2021/10/27 00:21:49;;;;;;;6.28;1.50;;;;;;;8.36;89.36;101051.78;6335481;28;20438;-73
2021/10/27 00:24:54;;;;;;;3.00;0.93;;;;;;;8.38;89.86;101044.25;6336496;28;20209;-73
2021/10/27 00:27:58;;;;;;;3.13;1.20;;;;;;;8.26;90.14;101047.69;6337305;28;20210;-72
2021/10/27 00:31:02;;;;;;;2.97;1.50;;;;;;;8.17;90.67;101041.53;6340254;28;20542;-72
2021/10/27 00:34:06;;;;;;;2.22;1.50;;;;;;;8.26;91.56;101044.97;6341210;28;20183;-73
2021/10/27 00:37:12;;;;;;;4.35;1.35;;;;;;;8.28;91.04;101051.91;6340138;28;20493;-73
2021/10/27 00:40:17;;;;;;;6.30;2.20;;;;;;;8.19;91.22;101051.19;6341004;28;20183;-73
2021/10/27 00:43:21;;;;;;;2.53;1.20;;;;;;;8.24;91.44;101056.06;6340262;28;20191;-72
2021/10/27 00:46:26;;;;;;;3.63;1.80;;;;;;;8.26;91.75;101051.25;6341108;28;20190;-72
2021/10/27 00:49:31;;;;;;;7.30;2.03;;;;;;;8.29;91.18;101056.34;6340856;28;20321;-72
2021/10/27 00:52:37;;;;;;;4.32;1.50;;;;;;;8.32;91.47;101061.34;6339572;28;20270;-73
2021/10/27 00:55:42;;;;;;;5.43;1.48;;;;;;;8.34;91.38;101064.75;6340869;28;20267;-72
2021/10/27 00:58:46;;;;;;;9.02;1.10;;;;;;;8.31;91.25;101059.69;6339460;28;20191;-73
2021/10/27 01:01:51;;;;;;;7.57;1.45;;;;;;;8.26;91.43;101064.00;6340729;28;20183;-72
2021/10/27 01:04:56;;;;;;;4.43;1.20;;;;;;;8.16;91.23;101061.63;6339345;28;20377;-73
2021/10/27 01:08:01;;;;;;;4.60;1.45;;;;;;;8.26;91.26;101067.56;6339811;28;20445;-73
2021/10/27 01:11:06;;;;;;;5.95;1.35;;;;;;;8.13;91.40;101073.72;6340254;28;20183;-73
2021/10/27 01:14:12;;;;;;;5.82;1.65;;;;;;;8.06;91.63;101066.56;6340683;28;20183;-73
2021/10/27 01:17:18;;;;;;;2.53;1.50;;;;;;;8.10;91.83;101056.97;6339125;28;20504;-73
2021/10/27 01:20:24;;;;;;;2.78;1.75;;;;;;;7.97;91.94;101051.41;6340478;28;20252;-73
2021/10/27 01:23:28;;;;;;;5.32;1.60;;;;;;;7.94;92.28;101062.66;6339037;28;20474;-73
2021/10/27 01:26:32;;;;;;;1.40;1.27;;;;;;;8.09;91.58;101052.53;6340243;28;20253;-73
2021/10/27 01:29:37;;;;;;;4.20;1.63;;;;;;;7.90;92.85;101055.94;6339174;28;20210;-73
2021/10/27 01:32:43;;;;;;;8.05;1.90;;;;;;;7.88;92.79;101052.59;6339780;28;20183;-73
2021/10/27 01:35:48;;;;;;;7.85;1.73;;;;;;;7.98;92.48;101053.09;6338717;28;20373;-73
2021/10/27 01:38:53;;;;;;;9.38;1.60;;;;;;;7.82;92.87;101064.22;6338306;28;20194;-73
2021/10/27 01:41:57;;;;;;;3.15;1.10;;;;;;;7.92;92.54;101072.88;6338994;28;20183;-73
2021/10/27 01:45:01;;;;;;;4.53;1.50;;;;;;;7.80;92.91;101066.28;6338420;28;20584;-73
2021/10/27 01:48:07;;;;;;;7.38;1.55;;;;;;;7.87;92.93;101067.19;6338280;28;20536;-73
2021/10/27 01:51:13;;;;;;;4.20;1.58;;;;;;;7.75;93.06;101080.47;6339207;28;20190;-74
2021/10/27 01:54:18;;;;;;;5.15;1.45;;;;;;;7.80;93.06;101063.56;6338298;28;20258;-73
2021/10/27 01:57:23;;;;;;;3.85;1.70;;;;;;;7.89;92.92;101060.53;6339565;28;20183;-73
2021/10/27 02:00:27;;;;;;;5.85;1.60;;;;;;;7.83;92.14;101055.03;6338976;28;20183;-73
2021/10/27 02:03:31;;;;;;;8.30;1.55;;;;;;;7.80;92.27;101055.44;6338492;28;20189;-73
2021/10/27 02:06:37;;;;;;;2.75;1.38;;;;;;;7.81;92.51;101054.38;6337992;28;20233;-73
2021/10/27 02:09:42;;;;;;;3.95;1.50;;;;;;;7.73;92.45;101049.91;6338096;28;20281;-73
2021/10/27 02:12:46;;;;;;;5.57;1.80;;;;;;;7.71;92.99;101051.13;6337294;28;20295;-73
2021/10/27 02:15:51;;;;;;;2.40;1.40;;;;;;;7.65;93.63;101046.50;6339299;28;20183;-73
2021/10/27 02:18:55;;;;;;;9.00;1.50;;;;;;;7.78;92.67;101047.44;6338676;28;20194;-73
2021/10/27 02:22:01;;;;;;;7.32;1.55;;;;;;;7.82;92.30;101047.91;6339103;28;20218;-72
2021/10/27 02:25:06;;;;;;;1.90;1.60;;;;;;;7.69;92.33;101036.91;6338358;28;20246;-72
2021/10/27 02:28:11;;;;;;;3.90;1.65;;;;;;;7.63;92.36;101033.09;6337351;28;20374;-72
2021/10/27 02:31:15;;;;;;;9.35;1.30;;;;;;;7.63;92.45;101032.28;6337208;28;20187;-72
2021/10/27 02:34:20;;;;;;;3.97;1.38;;;;;;;7.55;93.08;101031.34;6338595;28;20183;-72
2021/10/27 02:37:25;;;;;;;2.93;1.50;;;;;;;7.56;92.86;101038.47;6338503;28;20246;-73
2021/10/27 02:40:30;;;;;;;1.45;1.35;;;;;;;7.60;92.64;101027.22;6337589;28;20218;-72
2021/10/27 02:43:34;;;;;;;3.80;1.35;;;;;;;7.51;92.73;101024.63;6336936;28;20182;-73
2021/10/27 02:46:39;;;;;;;5.43;1.97;;;;;;;7.45;92.45;101019.13;6337215;28;20186;-72
2021/10/27 02:49:44;;;;;;;2.90;1.40;;;;;;;7.31;92.50;101031.72;6337900;28;20273;-72
2021/10/27 02:52:50;;;;;;;5.53;1.37;;;;;;;7.38;92.62;101035.34;6336684;28;20183;-72
2021/10/27 02:55:54;;;;;;;9.43;1.67;;;;;;;7.33;92.27;101037.78;6336692;28;20466;-72
2021/10/27 02:58:58;;;;;;;6.10;1.47;;;;;;;7.34;92.84;101028.63;6337702;28;20289;-73
2021/10/27 03:02:02;;;;;;;5.07;1.47;;;;;;;7.42;93.05;101035.81;6337975;28;20225;-72
2021/10/27 03:05:08;;;;;;;4.50;1.50;;;;;;;7.37;93.01;101039.06;6336908;28;20183;-73
2021/10/27 03:08:14;;;;;;;7.90;1.83;;;;;;;7.41;92.81;101029.53;6336755;28;20238;-73
2021/10/27 03:11:19;;;;;;;2.67;1.60;;;;;;;7.48;91.70;101038.59;6337860;28;20186;-73
2021/10/27 03:14:23;;;;;;;5.93;1.43;;;;;;;7.43;92.28;101032.88;6337802;28;20221;-72
2021/10/27 03:17:27;;;;;;;4.88;1.38;;;;;;;7.41;91.81;101026.81;6336406;28;20409;-72
2021/10/27 03:20:31;;;;;;;5.87;1.80;;;;;;;7.47;91.99;101028.75;6337650;28;20273;-73
2021/10/27 03:23:37;;;;;;;9.13;1.60;;;;;;;7.50;91.80;101022.09;6337335;28;20182;-73
2021/10/27 03:26:41;;;;;;;5.68;1.70;;;;;;;7.43;92.32;101022.03;6337652;28;20182;-73
2021/10/27 03:29:45;;;;;;;2.92;1.65;;;;;;;7.43;92.42;101011.19;6336114;28;20277;-73
2021/10/27 03:32:51;;;;;;;6.10;1.57;;;;;;;7.43;93.51;101005.75;6337574;28;20246;-73
2021/10/27 03:35:55;;;;;;;7.63;2.30;;;;;;;7.37;92.59;101000.25;6337496;28;20250;-73
2021/10/27 03:39:01;;;;;;;4.60;1.87;;;;;;;7.35;92.32;101008.56;6337656;28;20187;-74
2021/10/27 03:42:08;;;;;;;4.32;1.90;;;;;;;7.40;91.46;101006.13;6337126;28;20183;-73
2021/10/27 03:45:12;;;;;;;5.00;2.00;;;;;;;7.42;92.21;101004.06;6336449;28;20218;-73
2021/10/27 03:48:17;;;;;;;3.30;1.57;;;;;;;7.26;93.57;100998.03;6337540;28;20218;-74
2021/10/27 03:51:21;;;;;;;5.00;1.80;;;;;;;7.45;93.50;101006.38;6337270;28;20211;-73
2021/10/27 03:54:26;;;;;;;1.90;1.40;;;;;;;7.41;92.77;101001.53;6336978;28;20183;-73
2021/10/27 03:57:30;;;;;;;8.17;2.03;;;;;;;7.43;93.01;100992.19;6336824;28;20183;-73
2021/10/27 04:00:36;;;;;;;4.53;1.97;;;;;;;7.51;92.80;100986.63;6335937;28;20232;-73
2021/10/27 04:03:41;;;;;;;4.90;2.13;;;;;;;7.43;93.52;100985.91;6339030;28;20221;-73
2021/10/27 04:06:45;;;;;;;7.47;2.27;;;;;;;7.47;93.93;100990.75;6341347;28;20283;-73
2021/10/27 04:09:50;;;;;;;3.47;1.73;;;;;;;7.49;93.35;100977.84;6342071;28;20273;-73
2021/10/27 04:12:55;;;;;;;2.60;1.50;;;;;;;7.38;93.52;100989.19;6342018;28;20228;-73
2021/10/27 04:15:59;;;;;;;6.80;1.60;;;;;;;7.57;93.07;100985.81;6341931;28;20182;-73
2021/10/27 04:19:03;;;;;;;7.50;1.60;;;;;;;7.38;93.73;100980.19;6341629;28;20191;-73
2021/10/27 04:22:08;;;;;;;5.88;1.63;;;;;;;7.60;93.52;100978.34;6341495;28;20497;-73
2021/10/27 04:25:14;;;;;;;3.33;1.75;;;;;;;7.72;93.24;100987.66;6340393;28;20557;-75
2021/10/27 04:28:38;;;;;;;5.30;2.00;;;;;;;7.79;92.66;100983.09;6340299;28;20467;-73
2021/10/27 04:31:43;;;;;;;10.05;1.73;;;;;;;7.51;94.05;100975.75;6340834;28;20238;-73
2021/10/27 04:34:47;;;;;;;6.33;2.00;;;;;;;7.51;94.04;100970.34;6340561;28;20220;-73
2021/10/27 04:37:51;;;;;;;9.67;1.80;;;;;;;7.47;94.59;100950.00;6341363;28;20190;-72
2021/10/27 04:40:57;;;;;;;7.87;1.80;;;;;;;7.44;95.15;100950.44;6339882;28;20413;-72
2021/10/27 04:44:02;;;;;;;5.18;2.70;;;;;;;7.42;95.35;100943.53;6341211;28;20189;-73
2021/10/27 04:47:06;;;;;;;8.47;1.87;;;;;;;7.42;95.84;100933.47;6340122;28;20191;-72
2021/10/27 04:50:12;;;;;;;3.45;2.15;;;;;;;7.32;97.09;100943.81;6340503;28;20207;-73
2021/10/27 04:53:18;;;;;;;6.68;2.05;;;;;;;7.34;97.63;100941.78;6340530;28;20250;-72
2021/10/27 04:56:24;;;;;;;4.93;2.07;;;;;;;7.52;97.13;100939.41;6340417;28;20182;-73
2021/10/27 04:59:33;;;;;;;9.60;2.10;;;;;;;7.46;96.91;100940.22;6340738;28;20219;-72
2021/10/27 05:02:38;;;;;;;8.27;2.07;;;;;;;7.54;96.97;100936.53;6340757;28;20183;-73
2021/10/27 05:05:46;;;;;;;10.93;2.92;;;;;;;7.51;97.30;100926.91;6339205;28;20497;-73
2021/10/27 05:08:51;;;;;;;4.97;2.20;;;;;;;7.63;97.22;100919.03;6340665;28;20190;-72
2021/10/27 05:11:56;;;;;;;11.17;2.10;;;;;;;7.50;98.21;100914.34;6340630;28;20206;-73
2021/10/27 05:15:00;;;;;;;6.15;2.13;;;;;;;7.48;99.01;100921.00;6339059;28;20190;-73
2021/10/27 05:18:05;;;;;;;6.63;2.10;;;;;;;7.46;99.37;100913.06;6340037;28;20204;-72
2021/10/27 05:21:09;;;;;;;4.32;2.00;;;;;;;7.51;99.22;100907.88;6340185;28;20190;-73
2021/10/27 05:24:14;;;;;;;13.43;2.10;;;;;;;7.56;99.91;100901.88;6338879;28;20182;-73
2021/10/27 05:27:19;;;;;;;5.87;2.50;;;;;;;7.63;99.11;100894.59;6339822;28;20236;-73
2021/10/27 05:30:24;;;;;;;9.88;2.53;;;;;;;7.67;99.11;100887.75;6339025;28;20517;-72
2021/10/27 05:33:28;;;;;;;10.37;2.30;;;;;;;7.63;99.63;100882.94;6339749;28;20190;-73
2021/10/27 05:36:33;;;;;;;9.10;2.40;;;;;;;7.71;99.83;100888.19;6339359;28;20215;-72
2021/10/27 05:39:37;;;;;;;11.10;2.70;;;;;;;7.78;99.13;100894.53;6339609;28;20184;-72
2021/10/27 05:42:42;;;;;;;9.20;2.17;;;;;;;7.90;98.62;100887.50;6339627;28;20250;-72
2021/10/27 05:45:52;;;;;;;11.63;2.50;;;;;;;7.85;99.02;100884.56;6339412;28;20183;-72
2021/10/27 05:49:03;;;;;;;4.97;2.28;;;;;;;7.87;99.21;100877.88;6339578;28;20221;-73
2021/10/27 05:55:33;;;;;;;4.03;1.92;;;;;;;7.99;98.08;100870.84;6338300;28;20199;-74
2021/10/27 05:58:39;;;;;;;5.90;2.00;;;;;;;8.08;98.08;100864.22;6339319;28;20183;-73
2021/10/27 06:01:45;;;;;;;8.40;2.30;;;;;;;8.05;98.10;100855.63;6338003;28;20470;-73
2021/10/27 06:04:49;;;;;;;6.93;2.03;;;;;;;8.04;98.53;100856.66;6338858;28;20284;-73
2021/10/27 06:07:54;;;;;;;4.20;2.30;;;;;;;8.10;98.38;100845.00;6338840;28;20257;-73
2021/10/27 06:11:05;;;;;;;5.78;2.45;;;;;;;8.13;98.33;100850.03;6337898;28;20234;-73
2021/10/27 06:14:11;;;;;;;3.72;2.42;;;;;;;8.25;98.50;100833.97;6338786;28;20183;-73
2021/10/27 06:17:20;;;;;;;3.47;2.28;;;;;;;8.17;99.09;100829.56;6338510;28;20183;-73
2021/10/27 06:20:25;;;;;;;4.85;2.90;;;;;;;8.14;99.60;100840.81;6337303;28;20383;-72
2021/10/27 06:23:29;;;;;;;6.55;2.22;;;;;;;8.33;98.87;100822.97;6338666;28;20271;-72
2021/10/27 06:26:34;;;;;;;5.45;2.33;;;;;;;8.28;99.07;100831.75;6336799;28;20403;-71
2021/10/27 06:29:43;;;;;;;11.95;3.25;;;;;;;8.27;99.34;100819.19;6338284;28;20250;-72
2021/10/27 06:32:59;;;;;;;8.95;2.47;;;;;;;8.29;99.43;100817.13;6337843;28;20256;-72
2021/10/27 06:36:09;;;;;;;2.78;2.33;;;;;;;8.39;99.81;100817.59;6338067;28;20187;-73
2021/10/27 06:46:35;;;;;;;4.35;2.60;;;;;;;8.40;100.00;100786.63;6235684;28;20201;-73
2021/10/27 06:49:40;;;;;;;8.77;2.58;;;;;;;8.37;100.00;100792.47;6336848;28;20492;-72
2021/10/27 06:52:44;;;;;;;8.23;2.42;;;;;;;8.37;100.00;100770.72;6336734;28;20263;-73
2021/10/27 06:55:48;;;;;;;8.60;2.30;;;;;;;8.44;100.00;100760.72;6337818;28;20228;-73
2021/10/27 06:58:55;;;;;;;5.32;2.95;;;;;;;8.40;100.00;100751.28;6337854;28;20246;-72
2021/10/27 07:02:26;;;;;;;11.90;2.67;;;;;;;8.40;100.00;100748.56;6336694;28;20209;-72
2021/10/27 07:15:35;;;;;;;9.55;3.10;;;;;;;8.50;100.00;100718.28;6275359;28;20206;-72
2021/10/27 07:18:41;;;;;;;12.77;3.15;;;;;;;8.52;100.00;100708.88;6287473;28;20261;-73
2021/10/27 07:21:46;;;;;;;4.88;2.72;;;;;;;8.50;100.00;100699.25;6287047;28;20192;-72
2021/10/27 07:24:50;;;;;;;9.60;2.97;;;;;;;8.50;100.00;100691.91;6287622;28;20192;-73
2021/10/27 07:27:54;;;;;;;5.55;2.75;;;;;;;8.54;100.00;100685.03;6308193;28;20184;-72
2021/10/27 07:31:00;;;;;;;7.97;3.10;;;;;;;8.61;100.00;100679.56;6311469;28;20211;-72
2021/10/27 07:34:10;;;;;;;6.85;2.88;;;;;;;8.68;100.00;100664.94;6311049;28;20246;-72
2021/10/27 07:40:43;;;;;;;2.83;2.63;;;;;;;8.75;100.00;100652.19;6317205;28;20223;-72
2021/10/27 07:43:48;;;;;;;7.53;3.00;;;;;;;8.86;100.00;100633.56;6317590;28;20183;-72
2021/10/27 07:46:52;;;;;;;6.50;2.50;;;;;;;8.96;100.00;100623.91;6317418;28;20255;-72
2021/10/27 07:49:58;;;;;;;2.83;2.58;;;;;;;9.09;99.69;100614.91;6317260;28;20253;-72
2021/10/27 07:53:04;;;;;;;4.20;2.20;;;;;;;9.03;100.00;100613.03;6315779;28;20215;-72
2021/10/27 07:56:10;;;;;;;4.07;2.53;;;;;;;9.01;100.00;100609.69;6315653;28;20407;-72
2021/10/27 07:59:15;;;;;;;3.47;1.95;;;;;;;8.97;100.00;100592.09;6317013;28;20221;-72
2021/10/27 08:02:19;;;;;;;6.63;2.63;;;;;;;8.96;100.00;100590.44;6317087;28;20188;-72
2021/10/27 08:05:25;;;;;;;4.72;2.50;;;;;;;9.03;100.00;100585.81;6316556;28;20215;-72
2021/10/27 08:08:29;;;;;;;8.15;2.67;;;;;;;9.04;100.00;100563.81;6338892;28;20233;-72
2021/10/27 08:11:33;;;;;;;5.18;2.65;;;;;;;9.06;100.00;100569.06;6340662;28;20207;-72
2021/10/27 08:14:39;;;;;;;4.07;2.50;;;;;;;9.21;100.00;100545.13;6340573;28;20601;-73
2021/10/27 08:17:57;;;;;;;3.35;2.38;;;;;;;9.20;100.00;100549.75;6341566;28;20186;-72
2021/10/27 08:21:06;;;;;;;3.78;2.50;;;;;;;9.05;100.00;100532.00;6340372;28;20187;-72
2021/10/27 08:24:19;;;;;;;3.70;2.40;;;;;;;9.10;100.00;100522.13;6341723;28;20183;-72
2021/10/27 08:27:24;;;;;;;8.40;2.05;;;;;;;9.19;100.00;100528.19;6341152;28;20183;-72
2021/10/27 08:30:35;;;;;;;2.25;1.90;;;;;;;9.26;100.00;100510.78;6341572;28;20183;-72
2021/10/27 08:33:49;;;;;;;4.57;2.10;;;;;;;9.24;100.00;100507.44;6341463;28;20221;-73
2021/10/27 08:36:54;;;;;;;9.70;2.20;;;;;;;9.13;100.00;100496.38;6341270;28;20190;-73
2021/10/27 08:39:59;;;;;;;2.30;1.92;;;;;;;9.15;100.00;100495.13;6340540;28;20187;-72
2021/10/27 08:43:07;;;;;;;5.15;2.47;;;;;;;9.25;100.00;100491.91;6341314;28;20210;-71
2021/10/27 08:46:12;;;;;;;7.00;1.80;;;;;;;9.30;100.00;100467.59;6341144;28;20190;-72
2021/10/27 08:49:18;;;;;;;1.52;1.52;;;;;;;9.26;100.00;100472.66;6340467;28;20249;-72
2021/10/27 08:52:24;;;;;;;4.97;1.73;;;;;;;9.26;100.00;100461.78;6341144;28;20312;-72
2021/10/27 08:55:28;;;;;;;2.08;1.98;;;;;;;9.25;100.00;100464.69;6341050;28;20214;-72
2021/10/27 08:58:37;;;;;;;4.55;1.45;;;;;;;9.38;100.00;100449.13;6339797;28;20187;-72
2021/10/27 09:01:52;;;;;;;1.20;1.20;;;;;;;9.40;100.00;100441.56;6339980;28;20194;-71
2021/10/27 09:05:14;;;;;;;2.53;1.30;;;;;;;9.36;100.00;100428.63;6340290;28;20187;-72
2021/10/27 09:36:04;;;;;;;0.90;0.90;;;;;;;9.55;100.00;100362.31;6338726;28;20199;-72
2021/10/27 09:39:31;;;;;;;1.23;1.17;;;;;;;9.56;100.00;100358.53;6340143;28;20190;-72
2021/10/27 09:42:51;;;;;;;1.48;1.10;;;;;;;9.66;100.00;100353.41;6339383;28;20187;-73
2021/10/27 09:56:41;;;;;;;0.95;0.95;;;;;;;9.76;100.00;100337.38;6338408;28;20220;-72
2021/10/27 10:07:05;;;;;;;0.90;0.90;;;;;;;9.84;100.00;100287.22;6337736;28;20604;-72
2021/10/27 10:10:11;;;;;;;1.10;1.10;;;;;;;9.76;100.00;100314.75;6337715;28;20196;-72
2021/10/27 10:13:19;;;;;;;1.20;1.20;;;;;;;9.86;100.00;100299.56;6339147;28;20252;-72
2021/10/27 10:16:25;;;;;;;1.75;1.10;;;;;;;9.82;100.00;100287.47;6338981;28;20197;-73
2021/10/27 10:19:33;;;;;;;2.08;1.13;;;;;;;9.90;100.00;100306.25;6338606;28;20246;-73
2021/10/27 10:22:39;;;;;;;1.75;1.08;;;;;;;9.94;100.00;100296.56;6337795;28;20187;-72
2021/10/27 10:25:50;;;;;;;1.10;1.10;;;;;;;9.95;100.00;100281.03;6337570;28;20281;-72
2021/10/27 10:28:54;;;;;;;0.90;0.90;;;;;;;9.98;100.00;100275.97;6338539;28;20183;-72
2021/10/27 10:32:28;;;;;;;3.90;1.48;;;;;;;10.12;100.00;100275.84;6338461;28;20256;-72
2021/10/27 10:35:47;;;;;;;0.90;0.90;;;;;;;10.07;100.00;100274.59;6339140;28;20246;-72
2021/10/27 10:39:24;;;;;;;1.15;1.15;;;;;;;10.23;100.00;100256.00;6339394;28;20266;-73
2021/10/27 10:42:51;;;;;;;1.33;1.23;;;;;;;10.08;100.00;100270.00;6337238;28;20409;-72
2021/10/27 10:46:03;;;;;;;1.20;1.20;;;;;;;10.23;100.00;100253.28;6337600;28;20229;-72
2021/10/27 11:24:58;;;;;;;1.23;1.23;;;;;;;10.74;100.00;100225.50;6337902;28;20224;-73
2021/10/27 11:38:20;;;;;;;3.60;1.42;;;;;;;10.84;100.00;100229.34;6337209;28;20228;-73
2021/10/27 11:41:35;;;;;;;1.67;1.63;;;;;;;10.92;100.00;100229.00;6337204;28;20227;-73
2021/10/27 11:44:45;;;;;;;1.60;1.60;;;;;;;10.92;100.00;100218.09;6337517;28;20209;-72
2021/10/27 11:47:52;;;;;;;1.30;1.30;;;;;;;10.97;100.00;100220.94;6337403;28;20214;-72
2021/10/27 11:50:57;;;;;;;1.40;1.40;;;;;;;10.96;100.00;100219.31;6337067;28;20220;-73
2021/10/27 11:54:09;;;;;;;2.95;1.40;;;;;;;11.04;100.00;100216.19;6336769;28;20313;-74
2021/10/27 11:57:14;;;;;;;1.40;1.40;;;;;;;11.04;100.00;100215.41;6318302;28;20386;-72
2021/10/27 12:00:26;;;;;;;1.73;1.70;;;;;;;11.06;100.00;100214.09;6336938;28;20183;-72
2021/10/27 12:03:36;;;;;;;1.58;1.48;;;;;;;11.09;100.00;100213.59;6337000;28;20187;-72
2021/10/27 12:06:47;;;;;;;1.60;1.60;;;;;;;11.15;100.00;100211.84;6336060;28;20294;-73
2021/10/27 12:10:08;;;;;;;3.38;2.33;;;;;;;11.15;100.00;100209.94;6337240;28;20250;-73
2021/10/27 12:13:28;;;;;;;1.92;1.52;;;;;;;11.20;100.00;100210.06;6337086;28;20184;-73
2021/10/27 12:16:43;;;;;;;2.35;1.27;;;;;;;11.23;100.00;100209.59;6336151;28;20187;-73
2021/10/27 12:19:47;;;;;;;1.60;1.50;;;;;;;11.33;100.00;100198.91;6335612;28;20490;-73
2021/10/27 12:22:56;;;;;;;2.17;1.80;;;;;;;11.33;100.00;100204.38;6337129;28;20308;-72
2021/10/27 12:26:10;;;;;;;1.48;1.48;;;;;;;11.31;100.00;100205.69;6341298;28;20191;-73
2021/10/27 12:29:27;;;;;;;1.67;1.67;;;;;;;11.31;100.00;100222.91;6341832;28;20183;-73
2021/10/27 12:32:32;;;;;;;1.50;1.50;;;;;;;11.37;100.00;100212.94;6341471;28;20260;-73
2021/10/27 12:35:37;;;;;;;1.48;1.40;;;;;;;11.43;100.00;100209.22;6341263;28;20221;-73
2021/10/27 12:39:11;;;;;;;3.35;1.67;;;;;;;11.41;100.00;100199.63;6340289;28;20258;-73
2021/10/27 12:42:17;;;;;;;1.50;1.50;;;;;;;11.44;100.00;100189.06;6340134;28;20183;-73
2021/10/27 12:45:31;;;;;;;1.25;1.25;;;;;;;11.52;100.00;100196.06;6340174;28;20250;-73
2021/10/27 12:48:38;;;;;;;2.75;1.17;;;;;;;11.58;100.00;100189.66;6341426;28;20215;-73
2021/10/27 12:51:43;;;;;;;3.60;1.55;;;;;;;11.64;100.00;100196.88;6339916;28;20541;-73
2021/10/27 12:54:47;;;;;;;1.20;1.20;;;;;;;11.69;100.00;100180.63;6341158;28;20207;-72
2021/10/27 12:58:03;;;;;;;1.52;1.42;;;;;;;11.71;100.00;100187.50;6340430;28;20260;-73
2021/10/27 13:01:20;;;;;;;1.48;1.48;;;;;;;11.78;100.00;100184.66;6341089;28;20191;-73
2021/10/27 13:04:33;;;;;;;1.30;1.30;;;;;;;11.79;100.00;100191.78;6339650;28;20250;-73
2021/10/27 13:07:39;;;;;;;1.38;1.00;;;;;;;11.89;100.00;100187.34;6340329;28;20485;-73
2021/10/27 13:10:49;;;;;;;1.05;1.05;;;;;;;11.96;100.00;100200.91;6340847;28;20187;-73
2021/10/27 13:14:02;;;;;;;1.00;1.00;;;;;;;11.98;100.00;100211.59;6339313;28;20537;-73
2021/10/27 13:20:59;;;;;;;1.60;1.05;;;;;;;12.03;100.00;100220.72;6340458;28;20193;-73
2021/10/27 13:30:54;;;;;;;0.98;0.98;;;;;;;12.29;100.00;100241.22;6339456;28;20272;-72
2021/10/27 13:33:58;;;;;;;1.00;1.00;;;;;;;12.29;100.00;100242.06;6339767;28;20246;-72
2021/10/27 13:37:04;;;;;;;0.90;0.90;;;;;;;12.34;100.00;100241.34;6338455;28;20183;-72
2021/10/27 13:40:10;;;;;;;1.10;1.10;;;;;;;12.41;100.00;100251.06;6339640;28;20183;-73
2021/10/27 13:43:18;;;;;;;0.90;0.88;;;;;;;12.38;100.00;100262.47;6339042;28;20228;-73
2021/10/27 13:46:38;;;;;;;1.70;0.95;;;;;;;12.44;100.00;100272.47;6338477;28;20187;-73
2021/10/27 13:49:53;;;;;;;0.90;0.90;;;;;;;12.47;100.00;100271.16;6338392;28;20414;-73
2021/10/27 14:06:31;;;;;;;1.00;1.00;;;;;;;12.62;100.00;100298.81;6338314;28;20234;-74
2021/10/27 14:09:39;;;;;;;0.82;0.82;;;;;;;12.64;100.00;100309.50;6339887;28;20236;-73
2021/10/27 14:12:49;;;;;;;1.13;0.98;;;;;;;12.68;100.00;100310.72;6338970;28;20218;-73
2021/10/27 14:23:04;;;;;;;1.17;1.17;;;;;;;12.70;100.00;100336.75;6325227;28;20198;-74
2021/10/27 15:20:23;;;;;;;1.45;1.40;;;;;;;12.48;100.00;100421.38;6337917;28;20266;-73
2021/10/27 15:23:35;;;;;;;4.35;1.73;;;;;;;12.34;100.00;100424.59;6337665;28;20183;-73
2021/10/27 15:30:22;;;;;;;3.17;1.48;;;;;;;12.36;100.00;100450.66;6336527;28;20222;-72
2021/10/27 15:34:01;;;;;;;1.80;1.33;;;;;;;12.42;100.00;100449.72;6337441;28;20246;-73
2021/10/27 15:40:16;;;;;;;2.45;1.30;;;;;;;12.28;100.00;100453.75;6337705;28;20206;-73
2021/10/27 15:40:59;;;;;;;1.73;1.50;;;;;;;12.15;100.00;100464.91;6339016;28;20206;-73
2021/10/27 15:44:22;;;;;;;2.67;1.40;;;;;;;12.08;100.00;100480.59;6336686;28;20184;-72
2021/10/27 15:50:52;;;;;;;1.45;1.25;;;;;;;12.12;100.00;100478.25;6318678;28;20230;-73
2021/10/27 15:53:56;;;;;;;1.75;1.42;;;;;;;12.20;100.00;100469.66;6336245;28;20489;-73
2021/10/27 15:57:00;;;;;;;1.35;1.27;;;;;;;12.03;100.00;100477.75;6336418;28;20217;-72
2021/10/27 16:00:07;;;;;;;1.38;1.30;;;;;;;12.06;100.00;100482.75;6338897;28;20203;-72
2021/10/27 16:03:16;;;;;;;2.40;1.67;;;;;;;12.12;100.00;100495.44;6342362;28;20254;-73
2021/10/27 16:06:24;;;;;;;4.93;1.63;;;;;;;12.08;100.00;100488.81;6341248;28;20262;-73
2021/10/27 16:09:30;;;;;;;1.33;1.23;;;;;;;12.00;100.00;100500.06;6342202;28;20190;-73
2021/10/27 16:12:55;;;;;;;3.75;1.38;;;;;;;12.04;100.00;100490.34;6342307;28;20183;-73
2021/10/27 16:16:01;;;;;;;3.17;2.17;;;;;;;12.08;100.00;100518.88;6341896;28;20211;-73
2021/10/27 16:19:05;;;;;;;2.20;1.48;;;;;;;12.00;100.00;100521.09;6342248;28;20190;-73
2021/10/27 16:22:11;;;;;;;3.83;1.63;;;;;;;11.92;100.00;100525.00;6341662;28;20257;-73
2021/10/27 16:25:16;;;;;;;3.60;1.60;;;;;;;11.92;100.00;100525.00;6340509;28;20474;-73
2021/10/27 16:28:24;;;;;;;3.08;1.95;;;;;;;11.93;100.00;100533.00;6341597;28;20183;-73
2021/10/27 16:31:31;;;;;;;1.60;1.60;;;;;;;11.95;100.00;100543.69;6341316;28;20183;-73
2021/10/27 16:34:35;;;;;;;3.03;1.70;;;;;;;11.96;100.00;100539.91;6341687;28;20183;-73
2021/10/27 16:37:59;;;;;;;2.05;1.70;;;;;;;11.90;100.00;100554.50;6341037;28;20207;-73
2021/10/27 16:41:03;;;;;;;1.85;1.50;;;;;;;11.92;100.00;100558.66;6340205;28;20382;-74
2021/10/27 16:44:08;;;;;;;5.88;1.70;;;;;;;11.89;100.00;100570.06;6341136;28;20260;-74
2021/10/27 16:47:15;;;;;;;2.45;1.77;;;;;;;11.95;100.00;100571.03;6340005;28;20419;-73
2021/10/27 16:50:20;;;;;;;5.30;1.67;;;;;;;11.88;100.00;100578.50;6341177;28;20214;-72
2021/10/27 16:53:25;;;;;;;5.57;2.08;;;;;;;11.90;100.00;100577.19;6339878;28;20183;-72
2021/10/27 16:56:30;;;;;;;2.35;1.52;;;;;;;11.84;100.00;100599.13;6339613;28;20509;-71
2021/10/27 16:59:34;;;;;;;5.30;1.65;;;;;;;11.79;100.00;100601.72;6341104;28;20183;-72
2021/10/27 17:02:40;;;;;;;2.90;1.45;;;;;;;11.81;100.00;100605.91;6323086;28;20198;-74
2021/10/27 17:05:46;;;;;;;3.33;1.60;;;;;;;11.84;100.00;100607.34;6340082;28;21057;-73
2021/10/27 17:08:51;;;;;;;5.55;1.88;;;;;;;11.78;100.00;100611.84;6340866;28;20183;-73
2021/10/27 17:12:00;;;;;;;3.92;1.70;;;;;;;11.73;100.00;100622.66;6340050;28;20215;-73
2021/10/27 17:15:10;;;;;;;4.63;1.83;;;;;;;11.72;100.00;100628.31;6340420;28;20183;-73
2021/10/27 17:18:17;;;;;;;1.70;1.50;;;;;;;11.62;100.00;100633.47;6340215;28;20207;-74
2021/10/27 17:21:21;;;;;;;3.03;1.70;;;;;;;11.58;100.00;100637.72;6340111;28;20182;-73
2021/10/27 17:24:27;;;;;;;3.33;1.50;;;;;;;11.67;100.00;100644.53;6338996;28;20261;-72
2021/10/27 17:27:51;;;;;;;1.73;1.63;;;;;;;11.69;100.00;100661.56;6339029;28;20187;-71
2021/10/27 17:30:57;;;;;;;2.85;1.50;;;;;;;11.62;100.00;100666.25;6338973;28;20194;-72
2021/10/27 17:34:03;;;;;;;4.25;1.77;;;;;;;11.67;100.00;100663.66;6338892;28;20554;-72
2021/10/27 17:37:08;;;;;;;1.77;1.60;;;;;;;11.55;100.00;100670.97;6338783;28;20580;-73
2021/10/27 17:40:19;;;;;;;4.18;1.80;;;;;;;11.56;100.00;100678.09;6340018;28;20191;-71
2021/10/27 17:43:23;;;;;;;7.10;2.17;;;;;;;11.55;100.00;100679.16;6339473;28;20221;-76
2021/10/27 17:46:38;;;;;;;4.07;1.77;;;;;;;11.53;100.00;100684.03;6338678;28;20218;-73
2021/10/27 17:49:51;;;;;;;5.47;1.75;;;;;;;11.46;100.00;100683.25;6339547;28;20190;-72
2021/10/27 17:59:39;;;;;;;4.70;1.95;;;;;;;11.49;100.00;100715.56;6338135;28;20183;-72
2021/10/27 18:02:44;;;;;;;5.03;1.70;;;;;;;11.37;100.00;100723.69;6339285;28;20183;-73
2021/10/27 18:05:49;;;;;;;2.35;1.65;;;;;;;11.29;100.00;100722.09;6337853;28;20430;-73
2021/10/27 18:08:54;;;;;;;2.40;1.58;;;;;;;11.27;100.00;100743.28;6338883;28;20187;-74